sensor_id;sensor_type;location;lat;lon;timestamp;temperature;humidity
21759;DHT22;11041;50.854;20.580;2023-11-22T00:01:10;0.20;99.90
21759;DHT22;11041;50.854;20.580;2023-11-22T00:03:38;0.10;99.90
21759;DHT22;11041;50.854;20.580;2023-11-22T00:06:06;0.10;99.90
21759;DHT22;11041;50.854;20.580;2023-11-22T00:08:33;0.10;99.90
21759;DHT22;11041;50.854;20.580;2023-11-22T00:11:01;0.10;99.90
21759;DHT22;11041;50.854;20.580;2023-11-22T00:13:27;0.10;99.90
21759;DHT22;11041;50.854;20.580;2023-11-22T00:15:57;0.20;99.90
21759;DHT22;11041;50.854;20.580;2023-11-22T00:18:24;0.20;99.90
21759;DHT22;11041;50.854;20.580;2023-11-22T00:20:52;0.20;99.90
21759;DHT22;11041;50.854;20.580;2023-11-22T00:23:18;0.20;99.90
21759;DHT22;11041;50.854;20.580;2023-11-22T00:25:45;0.20;99.90
21759;DHT22;11041;50.854;20.580;2023-11-22T00:28:11;0.20;99.90
21759;DHT22;11041;50.854;20.580;2023-11-22T00:30:39;0.20;99.90
21759;DHT22;11041;50.854;20.580;2023-11-22T00:33:06;0.10;99.90
21759;DHT22;11041;50.854;20.580;2023-11-22T00:35:32;0.10;99.90
21759;DHT22;11041;50.854;20.580;2023-11-22T00:38:00;0.10;99.90
21759;DHT22;11041;50.854;20.580;2023-11-22T00:40:27;0.00;99.90
21759;DHT22;11041;50.854;20.580;2023-11-22T00:42:55;0.00;99.90
21759;DHT22;11041;50.854;20.580;2023-11-22T00:45:23;0.10;99.90
21759;DHT22;11041;50.854;20.580;2023-11-22T00:47:51;0.10;99.90
21759;DHT22;11041;50.854;20.580;2023-11-22T00:50:18;0.10;99.90
21759;DHT22;11041;50.854;20.580;2023-11-22T00:52:47;0.00;99.90
21759;DHT22;11041;50.854;20.580;2023-11-22T00:55:13;0.10;99.90
21759;DHT22;11041;50.854;20.580;2023-11-22T00:57:40;0.10;99.90
21759;DHT22;11041;50.854;20.580;2023-11-22T01:00:07;0.20;99.90
21759;DHT22;11041;50.854;20.580;2023-11-22T01:02:36;0.20;99.90
21759;DHT22;11041;50.854;20.580;2023-11-22T01:05:06;0.20;99.90
21759;DHT22;11041;50.854;20.580;2023-11-22T01:07:38;0.20;99.90
21759;DHT22;11041;50.854;20.580;2023-11-22T01:10:05;0.20;99.90
21759;DHT22;11041;50.854;20.580;2023-11-22T01:12:33;0.20;99.90
21759;DHT22;11041;50.854;20.580;2023-11-22T01:15:00;0.10;99.90
21759;DHT22;11041;50.854;20.580;2023-11-22T01:17:28;0.10;99.90
21759;DHT22;11041;50.854;20.580;2023-11-22T01:19:55;0.10;99.90
21759;DHT22;11041;50.854;20.580;2023-11-22T01:22:22;0.00;99.90
21759;DHT22;11041;50.854;20.580;2023-11-22T01:24:48;0.00;99.90
21759;DHT22;11041;50.854;20.580;2023-11-22T01:27:15;0.00;99.90
21759;DHT22;11041;50.854;20.580;2023-11-22T01:29:41;0.00;99.90
21759;DHT22;11041;50.854;20.580;2023-11-22T01:32:09;0.00;99.90
21759;DHT22;11041;50.854;20.580;2023-11-22T01:34:36;0.10;99.90
21759;DHT22;11041;50.854;20.580;2023-11-22T01:37:04;0.10;99.90
21759;DHT22;11041;50.854;20.580;2023-11-22T01:39:32;0.00;99.90
21759;DHT22;11041;50.854;20.580;2023-11-22T01:42:00;-0.10;99.90
21759;DHT22;11041;50.854;20.580;2023-11-22T01:44:28;0.00;99.90
21759;DHT22;11041;50.854;20.580;2023-11-22T01:46:55;-0.10;99.90
21759;DHT22;11041;50.854;20.580;2023-11-22T01:49:22;0.00;99.90
21759;DHT22;11041;50.854;20.580;2023-11-22T01:51:50;-0.10;99.90
21759;DHT22;11041;50.854;20.580;2023-11-22T01:54:18;-0.10;99.90
21759;DHT22;11041;50.854;20.580;2023-11-22T01:56:47;0.00;99.90
21759;DHT22;11041;50.854;20.580;2023-11-22T01:59:15;-0.10;99.90
21759;DHT22;11041;50.854;20.580;2023-11-22T02:01:44;-0.20;99.90
21759;DHT22;11041;50.854;20.580;2023-11-22T02:04:15;-0.10;99.90
21759;DHT22;11041;50.854;20.580;2023-11-22T02:06:42;-0.20;99.90
21759;DHT22;11041;50.854;20.580;2023-11-22T02:09:12;-0.20;99.90
21759;DHT22;11041;50.854;20.580;2023-11-22T02:11:47;-0.20;99.90
21759;DHT22;11041;50.854;20.580;2023-11-22T02:14:15;-0.20;99.90
21759;DHT22;11041;50.854;20.580;2023-11-22T02:16:43;-0.20;99.90
21759;DHT22;11041;50.854;20.580;2023-11-22T02:19:15;-0.20;99.90
21759;DHT22;11041;50.854;20.580;2023-11-22T02:21:47;-0.20;99.90
21759;DHT22;11041;50.854;20.580;2023-11-22T02:24:16;-0.20;99.90
21759;DHT22;11041;50.854;20.580;2023-11-22T02:26:46;-0.20;99.90
21759;DHT22;11041;50.854;20.580;2023-11-22T02:29:17;-0.20;99.90
21759;DHT22;11041;50.854;20.580;2023-11-22T02:31:47;-0.20;99.90
21759;DHT22;11041;50.854;20.580;2023-11-22T02:34:16;-0.20;99.90
21759;DHT22;11041;50.854;20.580;2023-11-22T02:36:46;-0.20;99.90
21759;DHT22;11041;50.854;20.580;2023-11-22T02:39:16;-0.30;99.90
21759;DHT22;11041;50.854;20.580;2023-11-22T02:41:44;-0.40;99.90
21759;DHT22;11041;50.854;20.580;2023-11-22T02:44:14;-0.40;99.90
21759;DHT22;11041;50.854;20.580;2023-11-22T02:46:45;-0.40;99.90
21759;DHT22;11041;50.854;20.580;2023-11-22T02:49:16;-0.40;99.90
21759;DHT22;11041;50.854;20.580;2023-11-22T02:51:45;-0.40;99.90
21759;DHT22;11041;50.854;20.580;2023-11-22T02:54:13;-0.30;99.90
21759;DHT22;11041;50.854;20.580;2023-11-22T02:56:47;-0.30;99.90
21759;DHT22;11041;50.854;20.580;2023-11-22T02:59:16;-0.30;99.90
21759;DHT22;11041;50.854;20.580;2023-11-22T03:01:44;-0.40;99.90
21759;DHT22;11041;50.854;20.580;2023-11-22T03:04:15;-0.40;99.90
21759;DHT22;11041;50.854;20.580;2023-11-22T03:06:46;-0.30;99.90
21759;DHT22;11041;50.854;20.580;2023-11-22T03:09:15;-0.30;99.90
21759;DHT22;11041;50.854;20.580;2023-11-22T03:11:43;-0.30;99.90
21759;DHT22;11041;50.854;20.580;2023-11-22T03:14:12;-0.30;99.90
21759;DHT22;11041;50.854;20.580;2023-11-22T03:16:42;-0.30;99.90
21759;DHT22;11041;50.854;20.580;2023-11-22T03:19:10;-0.30;99.90
21759;DHT22;11041;50.854;20.580;2023-11-22T03:21:42;-0.30;99.90
21759;DHT22;11041;50.854;20.580;2023-11-22T03:24:12;-0.30;99.90
21759;DHT22;11041;50.854;20.580;2023-11-22T03:26:42;-0.30;99.90
21759;DHT22;11041;50.854;20.580;2023-11-22T03:29:14;-0.30;99.90
21759;DHT22;11041;50.854;20.580;2023-11-22T03:31:47;-0.30;99.90
21759;DHT22;11041;50.854;20.580;2023-11-22T03:34:14;-0.30;99.90
21759;DHT22;11041;50.854;20.580;2023-11-22T03:36:43;-0.30;99.90
21759;DHT22;11041;50.854;20.580;2023-11-22T03:39:10;-0.30;99.90
21759;DHT22;11041;50.854;20.580;2023-11-22T03:41:41;-0.30;99.90
21759;DHT22;11041;50.854;20.580;2023-11-22T03:44:08;-0.30;99.90
21759;DHT22;11041;50.854;20.580;2023-11-22T03:46:39;-0.30;99.90
21759;DHT22;11041;50.854;20.580;2023-11-22T03:49:07;-0.30;99.90
21759;DHT22;11041;50.854;20.580;2023-11-22T03:51:39;-0.30;99.90
21759;DHT22;11041;50.854;20.580;2023-11-22T03:54:07;-0.30;99.90
21759;DHT22;11041;50.854;20.580;2023-11-22T03:56:36;-0.40;99.90
21759;DHT22;11041;50.854;20.580;2023-11-22T03:59:03;-0.40;99.90
21759;DHT22;11041;50.854;20.580;2023-11-22T04:01:32;-0.40;99.90
21759;DHT22;11041;50.854;20.580;2023-11-22T04:04:01;-0.40;99.90
21759;DHT22;11041;50.854;20.580;2023-11-22T04:06:28;-0.50;99.90
21759;DHT22;11041;50.854;20.580;2023-11-22T04:08:55;-0.50;99.90
21759;DHT22;11041;50.854;20.580;2023-11-22T04:11:23;-0.50;99.90
21759;DHT22;11041;50.854;20.580;2023-11-22T04:13:57;-0.40;99.90
21759;DHT22;11041;50.854;20.580;2023-11-22T04:16:26;-0.40;99.90
21759;DHT22;11041;50.854;20.580;2023-11-22T04:18:52;-0.40;99.90
21759;DHT22;11041;50.854;20.580;2023-11-22T04:21:21;-0.50;99.90
21759;DHT22;11041;50.854;20.580;2023-11-22T04:23:49;-0.50;99.90
21759;DHT22;11041;50.854;20.580;2023-11-22T04:26:19;-0.60;99.90
21759;DHT22;11041;50.854;20.580;2023-11-22T04:28:50;-0.60;99.90
21759;DHT22;11041;50.854;20.580;2023-11-22T04:31:23;-0.60;99.90
21759;DHT22;11041;50.854;20.580;2023-11-22T04:33:52;-0.60;99.90
21759;DHT22;11041;50.854;20.580;2023-11-22T04:36:23;-0.70;99.90
21759;DHT22;11041;50.854;20.580;2023-11-22T04:38:50;-0.70;99.90
21759;DHT22;11041;50.854;20.580;2023-11-22T04:41:21;-0.70;99.90
21759;DHT22;11041;50.854;20.580;2023-11-22T04:43:49;-0.70;99.90
21759;DHT22;11041;50.854;20.580;2023-11-22T04:46:15;-0.70;99.90
21759;DHT22;11041;50.854;20.580;2023-11-22T04:48:44;-0.70;99.90
21759;DHT22;11041;50.854;20.580;2023-11-22T04:51:16;-0.70;99.90
21759;DHT22;11041;50.854;20.580;2023-11-22T04:53:44;-0.80;99.90
21759;DHT22;11041;50.854;20.580;2023-11-22T04:56:12;-0.80;99.90
21759;DHT22;11041;50.854;20.580;2023-11-22T04:58:41;-0.70;99.90
21759;DHT22;11041;50.854;20.580;2023-11-22T05:01:11;-0.60;99.90
21759;DHT22;11041;50.854;20.580;2023-11-22T05:03:42;-0.60;99.90
21759;DHT22;11041;50.854;20.580;2023-11-22T05:06:11;-0.60;99.90
21759;DHT22;11041;50.854;20.580;2023-11-22T05:08:40;-0.60;99.90
21759;DHT22;11041;50.854;20.580;2023-11-22T05:11:11;-0.60;99.90
21759;DHT22;11041;50.854;20.580;2023-11-22T05:13:42;-0.50;99.90
21759;DHT22;11041;50.854;20.580;2023-11-22T05:16:15;-0.50;99.90
21759;DHT22;11041;50.854;20.580;2023-11-22T05:18:44;-0.50;99.90
21759;DHT22;11041;50.854;20.580;2023-11-22T05:21:12;-0.50;99.90
21759;DHT22;11041;50.854;20.580;2023-11-22T05:23:40;-0.60;99.90
21759;DHT22;11041;50.854;20.580;2023-11-22T05:26:09;-0.50;99.90
21759;DHT22;11041;50.854;20.580;2023-11-22T05:28:37;-0.50;99.90
21759;DHT22;11041;50.854;20.580;2023-11-22T05:31:08;-0.60;99.90
21759;DHT22;11041;50.854;20.580;2023-11-22T05:33:40;-0.60;99.90
21759;DHT22;11041;50.854;20.580;2023-11-22T05:36:10;-0.60;99.90
21759;DHT22;11041;50.854;20.580;2023-11-22T05:38:44;-0.50;99.90
21759;DHT22;11041;50.854;20.580;2023-11-22T05:41:11;-0.50;99.90
21759;DHT22;11041;50.854;20.580;2023-11-22T05:43:39;-0.50;99.90
21759;DHT22;11041;50.854;20.580;2023-11-22T05:46:09;-0.60;99.90
21759;DHT22;11041;50.854;20.580;2023-11-22T05:48:38;-0.50;99.90
21759;DHT22;11041;50.854;20.580;2023-11-22T05:51:09;-0.40;99.90
21759;DHT22;11041;50.854;20.580;2023-11-22T05:53:39;-0.50;99.90
21759;DHT22;11041;50.854;20.580;2023-11-22T05:56:08;-0.50;99.90
21759;DHT22;11041;50.854;20.580;2023-11-22T05:58:37;-0.60;99.90
21759;DHT22;11041;50.854;20.580;2023-11-22T06:01:05;-0.60;99.90
21759;DHT22;11041;50.854;20.580;2023-11-22T06:03:38;-0.50;99.90
21759;DHT22;11041;50.854;20.580;2023-11-22T06:06:09;-0.60;99.90
21759;DHT22;11041;50.854;20.580;2023-11-22T06:08:40;-0.60;99.90
21759;DHT22;11041;50.854;20.580;2023-11-22T06:11:09;-0.50;99.90
21759;DHT22;11041;50.854;20.580;2023-11-22T06:13:39;-0.50;99.90
21759;DHT22;11041;50.854;20.580;2023-11-22T06:16:07;-0.50;99.90
21759;DHT22;11041;50.854;20.580;2023-11-22T06:18:35;-0.50;99.90
21759;DHT22;11041;50.854;20.580;2023-11-22T06:21:07;-0.50;99.90
21759;DHT22;11041;50.854;20.580;2023-11-22T06:23:34;-0.40;99.90
21759;DHT22;11041;50.854;20.580;2023-11-22T06:26:01;-0.40;99.90
21759;DHT22;11041;50.854;20.580;2023-11-22T06:28:28;-0.40;99.90
21759;DHT22;11041;50.854;20.580;2023-11-22T06:30:55;-0.50;99.90
21759;DHT22;11041;50.854;20.580;2023-11-22T06:33:21;-0.40;99.90
21759;DHT22;11041;50.854;20.580;2023-11-22T06:35:48;-0.40;99.90
21759;DHT22;11041;50.854;20.580;2023-11-22T06:38:17;-0.30;99.90
21759;DHT22;11041;50.854;20.580;2023-11-22T06:40:45;-0.30;99.90
21759;DHT22;11041;50.854;20.580;2023-11-22T06:43:15;-0.30;99.90
21759;DHT22;11041;50.854;20.580;2023-11-22T06:45:42;-0.30;99.90
21759;DHT22;11041;50.854;20.580;2023-11-22T06:48:12;-0.30;99.90
21759;DHT22;11041;50.854;20.580;2023-11-22T06:50:39;-0.30;99.90
21759;DHT22;11041;50.854;20.580;2023-11-22T06:53:13;-0.30;99.90
21759;DHT22;11041;50.854;20.580;2023-11-22T06:55:42;-0.40;99.90
21759;DHT22;11041;50.854;20.580;2023-11-22T06:58:13;-0.40;99.90
21759;DHT22;11041;50.854;20.580;2023-11-22T07:00:43;-0.30;99.90
21759;DHT22;11041;50.854;20.580;2023-11-22T07:03:13;-0.30;99.90
21759;DHT22;11041;50.854;20.580;2023-11-22T07:05:45;-0.40;99.90
21759;DHT22;11041;50.854;20.580;2023-11-22T07:08:18;-0.40;99.90
21759;DHT22;11041;50.854;20.580;2023-11-22T07:10:50;-0.50;99.90
21759;DHT22;11041;50.854;20.580;2023-11-22T07:13:19;-0.50;99.90
21759;DHT22;11041;50.854;20.580;2023-11-22T07:15:51;-0.40;99.90
21759;DHT22;11041;50.854;20.580;2023-11-22T07:18:18;-0.40;99.90
21759;DHT22;11041;50.854;20.580;2023-11-22T07:20:51;-0.40;99.90
21759;DHT22;11041;50.854;20.580;2023-11-22T07:23:19;-0.40;99.90
21759;DHT22;11041;50.854;20.580;2023-11-22T07:25:51;-0.30;99.90
21759;DHT22;11041;50.854;20.580;2023-11-22T07:28:23;-0.20;99.90
21759;DHT22;11041;50.854;20.580;2023-11-22T07:30:55;-0.20;99.90
21759;DHT22;11041;50.854;20.580;2023-11-22T07:33:22;-0.20;99.90
21759;DHT22;11041;50.854;20.580;2023-11-22T07:35:52;-0.20;99.90
21759;DHT22;11041;50.854;20.580;2023-11-22T07:38:19;-0.30;99.90
21759;DHT22;11041;50.854;20.580;2023-11-22T07:40:48;-0.30;99.90
21759;DHT22;11041;50.854;20.580;2023-11-22T07:43:19;-0.30;99.90
21759;DHT22;11041;50.854;20.580;2023-11-22T07:45:47;-0.30;99.90
21759;DHT22;11041;50.854;20.580;2023-11-22T07:48:14;-0.30;99.90
21759;DHT22;11041;50.854;20.580;2023-11-22T07:50:47;-0.30;99.90
21759;DHT22;11041;50.854;20.580;2023-11-22T07:53:15;-0.30;99.90
21759;DHT22;11041;50.854;20.580;2023-11-22T07:55:45;-0.30;99.90
21759;DHT22;11041;50.854;20.580;2023-11-22T07:58:13;-0.20;99.90
21759;DHT22;11041;50.854;20.580;2023-11-22T08:00:44;-0.30;99.90
21759;DHT22;11041;50.854;20.580;2023-11-22T08:03:11;-0.20;99.90
21759;DHT22;11041;50.854;20.580;2023-11-22T08:05:41;-0.20;99.90
21759;DHT22;11041;50.854;20.580;2023-11-22T08:08:08;-0.10;99.90
21759;DHT22;11041;50.854;20.580;2023-11-22T08:10:37;-0.10;99.90
21759;DHT22;11041;50.854;20.580;2023-11-22T08:13:06;-0.10;99.90
21759;DHT22;11041;50.854;20.580;2023-11-22T08:15:34;-0.30;99.90
21759;DHT22;11041;50.854;20.580;2023-11-22T08:18:01;-0.20;99.90
21759;DHT22;11041;50.854;20.580;2023-11-22T08:20:30;-0.20;99.90
21759;DHT22;11041;50.854;20.580;2023-11-22T08:22:56;-0.20;99.90
21759;DHT22;11041;50.854;20.580;2023-11-22T08:25:24;-0.20;99.90
21759;DHT22;11041;50.854;20.580;2023-11-22T08:27:53;-0.20;99.90
21759;DHT22;11041;50.854;20.580;2023-11-22T08:30:20;-0.20;99.90
21759;DHT22;11041;50.854;20.580;2023-11-22T08:32:47;-0.20;99.90
21759;DHT22;11041;50.854;20.580;2023-11-22T08:35:22;-0.10;99.90
21759;DHT22;11041;50.854;20.580;2023-11-22T08:37:52;-0.10;99.90
21759;DHT22;11041;50.854;20.580;2023-11-22T08:40:19;-0.20;99.90
21759;DHT22;11041;50.854;20.580;2023-11-22T08:42:48;-0.20;99.90
21759;DHT22;11041;50.854;20.580;2023-11-22T08:45:15;-0.20;99.90
21759;DHT22;11041;50.854;20.580;2023-11-22T08:47:44;-0.30;99.90
21759;DHT22;11041;50.854;20.580;2023-11-22T08:50:12;-0.40;99.90
21759;DHT22;11041;50.854;20.580;2023-11-22T08:52:39;-0.50;99.90
21759;DHT22;11041;50.854;20.580;2023-11-22T08:55:08;-0.50;99.90
21759;DHT22;11041;50.854;20.580;2023-11-22T08:57:38;-0.50;99.90
21759;DHT22;11041;50.854;20.580;2023-11-22T09:00:06;-0.40;99.90
21759;DHT22;11041;50.854;20.580;2023-11-22T09:02:36;-0.40;99.90
21759;DHT22;11041;50.854;20.580;2023-11-22T09:05:04;-0.30;99.90
21759;DHT22;11041;50.854;20.580;2023-11-22T09:07:34;-0.40;99.90
21759;DHT22;11041;50.854;20.580;2023-11-22T09:10:04;-0.40;99.90
21759;DHT22;11041;50.854;20.580;2023-11-22T09:12:39;-0.30;99.90
21759;DHT22;11041;50.854;20.580;2023-11-22T09:15:11;-0.40;99.90
21759;DHT22;11041;50.854;20.580;2023-11-22T09:17:46;-0.40;99.90
21759;DHT22;11041;50.854;20.580;2023-11-22T09:20:13;-0.30;99.90
21759;DHT22;11041;50.854;20.580;2023-11-22T09:22:47;-0.30;99.90
21759;DHT22;11041;50.854;20.580;2023-11-22T09:25:21;-0.30;99.90
21759;DHT22;11041;50.854;20.580;2023-11-22T09:27:52;-0.30;99.90
21759;DHT22;11041;50.854;20.580;2023-11-22T09:30:31;-0.30;99.90
21759;DHT22;11041;50.854;20.580;2023-11-22T09:33:11;-0.30;99.90
21759;DHT22;11041;50.854;20.580;2023-11-22T09:35:46;-0.30;99.90
21759;DHT22;11041;50.854;20.580;2023-11-22T09:38:14;-0.20;99.90
21759;DHT22;11041;50.854;20.580;2023-11-22T09:40:44;-0.20;99.90
21759;DHT22;11041;50.854;20.580;2023-11-22T09:43:13;-0.20;99.90
21759;DHT22;11041;50.854;20.580;2023-11-22T09:45:51;-0.20;99.90
21759;DHT22;11041;50.854;20.580;2023-11-22T09:48:21;-0.10;99.90
21759;DHT22;11041;50.854;20.580;2023-11-22T09:54:00;0.00;99.90
21759;DHT22;11041;50.854;20.580;2023-11-22T09:56:35;-0.10;99.90
21759;DHT22;11041;50.854;20.580;2023-11-22T09:59:06;-0.10;99.90
21759;DHT22;11041;50.854;20.580;2023-11-22T10:01:40;-0.10;99.90
21759;DHT22;11041;50.854;20.580;2023-11-22T10:04:08;0.00;99.90
21759;DHT22;11041;50.854;20.580;2023-11-22T10:06:40;0.00;99.90
21759;DHT22;11041;50.854;20.580;2023-11-22T10:09:12;0.10;99.90
21759;DHT22;11041;50.854;20.580;2023-11-22T10:11:45;0.20;99.90
21759;DHT22;11041;50.854;20.580;2023-11-22T10:14:22;0.10;99.90
21759;DHT22;11041;50.854;20.580;2023-11-22T10:17:00;0.00;99.90
21759;DHT22;11041;50.854;20.580;2023-11-22T10:19:27;-0.10;99.90
21759;DHT22;11041;50.854;20.580;2023-11-22T10:22:05;-0.10;99.90
21759;DHT22;11041;50.854;20.580;2023-11-22T10:24:34;-0.20;99.90
21759;DHT22;11041;50.854;20.580;2023-11-22T10:27:06;-0.10;99.90
21759;DHT22;11041;50.854;20.580;2023-11-22T10:29:33;-0.20;99.90
21759;DHT22;11041;50.854;20.580;2023-11-22T10:32:03;-0.10;99.90
21759;DHT22;11041;50.854;20.580;2023-11-22T10:34:30;-0.20;99.90
21759;DHT22;11041;50.854;20.580;2023-11-22T10:37:02;-0.20;99.90
21759;DHT22;11041;50.854;20.580;2023-11-22T10:39:32;-0.30;99.90
21759;DHT22;11041;50.854;20.580;2023-11-22T10:42:02;-0.30;99.90
21759;DHT22;11041;50.854;20.580;2023-11-22T10:44:34;-0.30;99.90
21759;DHT22;11041;50.854;20.580;2023-11-22T10:47:02;-0.30;99.90
21759;DHT22;11041;50.854;20.580;2023-11-22T10:49:30;-0.20;99.90
21759;DHT22;11041;50.854;20.580;2023-11-22T10:51:58;-0.10;99.90
21759;DHT22;11041;50.854;20.580;2023-11-22T10:54:27;-0.10;99.90
21759;DHT22;11041;50.854;20.580;2023-11-22T10:56:58;-0.10;99.90
21759;DHT22;11041;50.854;20.580;2023-11-22T10:59:32;-0.10;99.90
21759;DHT22;11041;50.854;20.580;2023-11-22T11:02:01;0.00;99.90
21759;DHT22;11041;50.854;20.580;2023-11-22T11:04:47;-0.10;99.90
21759;DHT22;11041;50.854;20.580;2023-11-22T11:07:24;0.00;99.90
21759;DHT22;11041;50.854;20.580;2023-11-22T11:09:59;0.00;99.90
21759;DHT22;11041;50.854;20.580;2023-11-22T11:12:27;0.00;99.90
21759;DHT22;11041;50.854;20.580;2023-11-22T11:14:57;0.00;99.90
21759;DHT22;11041;50.854;20.580;2023-11-22T11:17:26;-0.10;99.90
21759;DHT22;11041;50.854;20.580;2023-11-22T11:19:57;0.00;99.90
21759;DHT22;11041;50.854;20.580;2023-11-22T11:22:26;0.00;99.90
21759;DHT22;11041;50.854;20.580;2023-11-22T11:25:00;0.00;99.90
21759;DHT22;11041;50.854;20.580;2023-11-22T11:27:33;-0.10;99.90
21759;DHT22;11041;50.854;20.580;2023-11-22T11:33:13;-0.10;99.90
21759;DHT22;11041;50.854;20.580;2023-11-22T11:36:07;-0.20;99.90
21759;DHT22;11041;50.854;20.580;2023-11-22T11:38:35;-0.10;99.90
21759;DHT22;11041;50.854;20.580;2023-11-22T11:41:11;-0.10;99.90
21759;DHT22;11041;50.854;20.580;2023-11-22T11:43:47;0.00;99.90
21759;DHT22;11041;50.854;20.580;2023-11-22T11:46:18;0.10;99.90
21759;DHT22;11041;50.854;20.580;2023-11-22T11:48:50;0.10;99.90
21759;DHT22;11041;50.854;20.580;2023-11-22T11:51:25;0.20;99.90
21759;DHT22;11041;50.854;20.580;2023-11-22T11:53:54;0.20;99.90
21759;DHT22;11041;50.854;20.580;2023-11-22T11:56:22;0.20;99.90
21759;DHT22;11041;50.854;20.580;2023-11-22T11:58:50;0.30;99.90
21759;DHT22;11041;50.854;20.580;2023-11-22T12:01:17;0.30;99.90
21759;DHT22;11041;50.854;20.580;2023-11-22T12:03:47;0.30;99.90
21759;DHT22;11041;50.854;20.580;2023-11-22T12:06:15;0.30;99.90
21759;DHT22;11041;50.854;20.580;2023-11-22T12:08:44;0.30;99.90
21759;DHT22;11041;50.854;20.580;2023-11-22T12:11:13;0.30;99.90
21759;DHT22;11041;50.854;20.580;2023-11-22T12:13:42;0.20;99.90
21759;DHT22;11041;50.854;20.580;2023-11-22T12:16:16;0.10;99.90
21759;DHT22;11041;50.854;20.580;2023-11-22T12:18:44;0.10;99.90
21759;DHT22;11041;50.854;20.580;2023-11-22T12:21:16;0.00;99.90
21759;DHT22;11041;50.854;20.580;2023-11-22T12:23:46;0.00;99.90
21759;DHT22;11041;50.854;20.580;2023-11-22T12:26:15;0.10;99.90
21759;DHT22;11041;50.854;20.580;2023-11-22T12:28:48;0.10;99.90
21759;DHT22;11041;50.854;20.580;2023-11-22T12:31:19;0.10;99.90
21759;DHT22;11041;50.854;20.580;2023-11-22T12:33:51;0.00;99.90
21759;DHT22;11041;50.854;20.580;2023-11-22T12:36:19;0.10;99.90
21759;DHT22;11041;50.854;20.580;2023-11-22T12:38:49;0.10;99.90
21759;DHT22;11041;50.854;20.580;2023-11-22T12:41:16;0.10;99.90
21759;DHT22;11041;50.854;20.580;2023-11-22T12:44:08;0.20;99.90
21759;DHT22;11041;50.854;20.580;2023-11-22T12:46:55;0.20;99.90
21759;DHT22;11041;50.854;20.580;2023-11-22T12:49:28;0.10;99.90
21759;DHT22;11041;50.854;20.580;2023-11-22T12:51:56;0.10;99.90
21759;DHT22;11041;50.854;20.580;2023-11-22T12:54:26;0.00;99.90
21759;DHT22;11041;50.854;20.580;2023-11-22T12:56:55;0.00;99.90
21759;DHT22;11041;50.854;20.580;2023-11-22T12:59:25;0.00;99.90
21759;DHT22;11041;50.854;20.580;2023-11-22T13:01:57;-0.10;99.90
21759;DHT22;11041;50.854;20.580;2023-11-22T13:04:28;-0.10;99.90
21759;DHT22;11041;50.854;20.580;2023-11-22T13:07:02;0.00;99.90
21759;DHT22;11041;50.854;20.580;2023-11-22T13:09:32;0.00;99.90
21759;DHT22;11041;50.854;20.580;2023-11-22T13:12:03;0.00;99.90
21759;DHT22;11041;50.854;20.580;2023-11-22T13:14:33;0.10;99.90
21759;DHT22;11041;50.854;20.580;2023-11-22T13:17:04;0.10;99.90
21759;DHT22;11041;50.854;20.580;2023-11-22T13:19:35;0.10;99.90
21759;DHT22;11041;50.854;20.580;2023-11-22T13:22:03;-0.10;99.90
21759;DHT22;11041;50.854;20.580;2023-11-22T13:24:31;0.00;99.90
21759;DHT22;11041;50.854;20.580;2023-11-22T13:27:03;0.10;99.90
21759;DHT22;11041;50.854;20.580;2023-11-22T13:29:33;0.10;99.90
21759;DHT22;11041;50.854;20.580;2023-11-22T13:32:02;0.20;99.90
21759;DHT22;11041;50.854;20.580;2023-11-22T13:34:31;0.20;99.90
21759;DHT22;11041;50.854;20.580;2023-11-22T13:36:58;0.20;99.90
21759;DHT22;11041;50.854;20.580;2023-11-22T13:39:27;0.30;99.90
21759;DHT22;11041;50.854;20.580;2023-11-22T13:41:58;0.30;99.90
21759;DHT22;11041;50.854;20.580;2023-11-22T13:44:25;0.20;99.90
21759;DHT22;11041;50.854;20.580;2023-11-22T13:46:53;0.20;99.90
21759;DHT22;11041;50.854;20.580;2023-11-22T13:49:27;0.20;99.90
21759;DHT22;11041;50.854;20.580;2023-11-22T13:51:56;0.20;99.90
21759;DHT22;11041;50.854;20.580;2023-11-22T13:54:24;0.20;99.90
21759;DHT22;11041;50.854;20.580;2023-11-22T13:56:53;0.20;99.90
21759;DHT22;11041;50.854;20.580;2023-11-22T13:59:23;0.20;99.90
21759;DHT22;11041;50.854;20.580;2023-11-22T14:01:50;0.20;99.90
21759;DHT22;11041;50.854;20.580;2023-11-22T14:04:18;0.30;99.90
21759;DHT22;11041;50.854;20.580;2023-11-22T14:06:47;0.30;99.90
21759;DHT22;11041;50.854;20.580;2023-11-22T14:09:15;0.40;99.90
21759;DHT22;11041;50.854;20.580;2023-11-22T14:11:42;0.30;99.90
21759;DHT22;11041;50.854;20.580;2023-11-22T14:14:09;0.30;99.90
21759;DHT22;11041;50.854;20.580;2023-11-22T14:16:38;0.20;99.90
21759;DHT22;11041;50.854;20.580;2023-11-22T14:19:08;0.10;99.90
21759;DHT22;11041;50.854;20.580;2023-11-22T14:21:35;0.10;99.90
21759;DHT22;11041;50.854;20.580;2023-11-22T14:24:01;0.10;99.90
21759;DHT22;11041;50.854;20.580;2023-11-22T14:26:28;0.00;99.90
21759;DHT22;11041;50.854;20.580;2023-11-22T14:28:55;0.00;99.90
21759;DHT22;11041;50.854;20.580;2023-11-22T14:31:21;-0.10;99.90
21759;DHT22;11041;50.854;20.580;2023-11-22T14:33:49;-0.10;99.90
21759;DHT22;11041;50.854;20.580;2023-11-22T14:36:15;-0.20;99.90
21759;DHT22;11041;50.854;20.580;2023-11-22T14:38:42;-0.20;99.90
21759;DHT22;11041;50.854;20.580;2023-11-22T14:41:09;-0.30;99.90
21759;DHT22;11041;50.854;20.580;2023-11-22T14:43:38;-0.40;99.90
21759;DHT22;11041;50.854;20.580;2023-11-22T14:46:05;-0.50;99.90
21759;DHT22;11041;50.854;20.580;2023-11-22T14:48:31;-0.50;99.90
21759;DHT22;11041;50.854;20.580;2023-11-22T14:51:00;-0.60;99.90
21759;DHT22;11041;50.854;20.580;2023-11-22T14:53:28;-0.70;99.90
21759;DHT22;11041;50.854;20.580;2023-11-22T14:55:54;-0.70;99.90
21759;DHT22;11041;50.854;20.580;2023-11-22T14:58:21;-0.70;99.90
21759;DHT22;11041;50.854;20.580;2023-11-22T15:00:48;-0.90;99.90
21759;DHT22;11041;50.854;20.580;2023-11-22T15:03:15;-1.00;99.90
21759;DHT22;11041;50.854;20.580;2023-11-22T15:05:41;-1.10;99.90
21759;DHT22;11041;50.854;20.580;2023-11-22T15:08:08;-1.10;99.90
21759;DHT22;11041;50.854;20.580;2023-11-22T15:10:34;-1.20;99.90
21759;DHT22;11041;50.854;20.580;2023-11-22T15:13:02;-1.40;99.90
21759;DHT22;11041;50.854;20.580;2023-11-22T15:15:29;-1.40;99.90
21759;DHT22;11041;50.854;20.580;2023-11-22T15:17:56;-1.40;99.90
21759;DHT22;11041;50.854;20.580;2023-11-22T15:20:22;-1.30;99.90
21759;DHT22;11041;50.854;20.580;2023-11-22T15:22:49;-1.30;99.90
21759;DHT22;11041;50.854;20.580;2023-11-22T15:25:16;-1.40;99.90
21759;DHT22;11041;50.854;20.580;2023-11-22T15:27:42;-1.30;99.90
21759;DHT22;11041;50.854;20.580;2023-11-22T15:30:10;-1.40;99.90
21759;DHT22;11041;50.854;20.580;2023-11-22T15:32:38;-1.60;99.90
21759;DHT22;11041;50.854;20.580;2023-11-22T15:35:05;-1.80;99.90
21759;DHT22;11041;50.854;20.580;2023-11-22T15:37:32;-1.90;99.90
21759;DHT22;11041;50.854;20.580;2023-11-22T15:39:58;-1.90;99.90